Time;durP1;ratioP1;P1;durP2;ratioP2;P2;SDS_P1;SDS_P2;PMS_P1;PMS_P2;Temp;Humidity;BMP_temperature;BMP_pressure;BME280_temperature;BME280_humidity;BME280_pressure;Samples;Min_cycle;Max_cycle;Signal;HPM_P1;HPM_P2
2023/05/06 00:02:00;;;;;;;3.97;2.30;;;16.20;99.90;;;;;;4915772;29;20373;-77
2023/05/06 00:04:26;;;;;;;3.97;2.22;;;16.20;99.90;;;;;;4931143;29;20127;-77
2023/05/06 00:06:53;;;;;;;3.05;2.15;;;16.20;99.90;;;;;;4915032;29;20052;-77
2023/05/06 00:09:18;;;;;;;3.75;2.53;;;16.20;99.90;;;;;;4914509;29;20498;-78
2023/05/06 00:11:44;;;;;;;5.28;2.28;;;16.20;99.90;;;;;;4916113;29;20064;-77
2023/05/06 00:14:11;;;;;;;6.88;2.47;;;16.20;99.90;;;;;;4914322;29;20126;-77
2023/05/06 00:16:37;;;;;;;4.35;2.30;;;16.20;99.90;;;;;;4915921;29;20032;-77
2023/05/06 00:19:03;;;;;;;5.05;2.50;;;16.20;99.90;;;;;;4914227;29;20109;-78
2023/05/06 00:21:28;;;;;;;4.72;2.40;;;16.20;99.90;;;;;;4930244;29;20025;-76
2023/05/06 00:23:54;;;;;;;6.32;2.78;;;16.20;99.90;;;;;;4917327;29;20131;-77
2023/05/06 00:26:20;;;;;;;3.47;2.28;;;16.10;99.90;;;;;;4919142;29;20110;-77
2023/05/06 00:28:46;;;;;;;4.50;2.30;;;16.20;99.90;;;;;;4918380;29;20031;-77
2023/05/06 00:31:11;;;;;;;3.90;2.22;;;16.20;99.90;;;;;;4919077;29;20028;-77
2023/05/06 00:33:37;;;;;;;3.40;2.20;;;16.10;99.90;;;;;;4919355;29;20028;-77
2023/05/06 00:36:03;;;;;;;5.65;2.60;;;16.10;99.90;;;;;;4918981;29;20110;-78
2023/05/06 00:38:28;;;;;;;3.90;2.45;;;16.10;99.90;;;;;;4917954;29;20115;-77
2023/05/06 00:40:54;;;;;;;4.63;2.40;;;16.10;99.90;;;;;;4919146;29;20106;-77
2023/05/06 00:43:19;;;;;;;3.75;2.13;;;16.10;99.90;;;;;;4917570;29;20028;-77
2023/05/06 00:45:46;;;;;;;5.80;2.58;;;16.10;99.90;;;;;;4919087;29;20032;-77
2023/05/06 00:48:14;;;;;;;6.53;2.80;;;16.10;99.90;;;;;;4919137;29;20032;-77
2023/05/06 00:50:40;;;;;;;2.63;2.08;;;16.10;99.90;;;;;;4918098;29;20032;-77
2023/05/06 00:53:08;;;;;;;4.00;2.33;;;16.00;99.90;;;;;;4918810;29;20028;-77
2023/05/06 00:55:34;;;;;;;4.50;2.30;;;16.00;99.90;;;;;;4918042;29;20036;-76
2023/05/06 00:58:00;;;;;;;4.68;2.55;;;16.00;99.90;;;;;;4933377;29;20035;-80
2023/05/06 01:00:26;;;;;;;3.88;2.40;;;16.00;99.90;;;;;;4918249;29;20114;-77
2023/05/06 01:02:52;;;;;;;5.63;2.35;;;15.90;99.90;;;;;;4917936;29;20123;-77
2023/05/06 01:05:21;;;;;;;4.13;2.38;;;15.90;99.90;;;;;;4916714;29;20063;-77
2023/05/06 01:08:08;;;;;;;4.65;2.33;;;15.80;99.90;;;;;;4917532;29;20036;-77
2023/05/06 01:10:56;;;;;;;5.63;2.30;;;15.70;99.90;;;;;;4917693;29;20036;-77
2023/05/06 01:13:41;;;;;;;5.35;2.72;;;15.70;99.90;;;;;;4932980;29;20028;-77
2023/05/06 01:16:09;;;;;;;5.10;2.50;;;15.60;99.90;;;;;;4917257;29;20501;-77
2023/05/06 01:18:37;;;;;;;5.30;2.63;;;15.60;99.90;;;;;;4933550;29;20029;-77
2023/05/06 01:21:04;;;;;;;3.65;2.40;;;15.60;99.90;;;;;;4918002;29;20103;-80
2023/05/06 01:23:56;;;;;;;4.43;2.70;;;15.60;99.90;;;;;;4917543;29;20040;-77
2023/05/06 01:26:22;;;;;;;;;;;15.60;99.90;;;;;;4917495;29;20084;-78
2023/05/06 01:28:48;;;;;;;6.18;2.85;;;15.60;99.90;;;;;;4917549;29;19938;-77
2023/05/06 01:31:22;;;;;;;5.35;2.53;;;15.50;99.90;;;;;;4916900;29;20118;-78
2023/05/06 01:34:08;;;;;;;4.63;2.50;;;15.50;99.90;;;;;;4918197;29;20032;-77
2023/05/06 01:36:52;;;;;;;6.68;3.13;;;15.50;99.90;;;;;;4917359;29;20127;-78
2023/05/06 01:39:24;;;;;;;5.32;2.95;;;15.40;99.90;;;;;;4916759;29;20048;-77
2023/05/06 01:41:52;;;;;;;5.88;3.05;;;15.40;99.90;;;;;;4917304;29;20110;-77
2023/05/06 01:44:20;;;;;;;3.45;2.83;;;15.40;99.90;;;;;;4917910;29;20114;-77
2023/05/06 01:46:48;;;;;;;5.90;3.20;;;15.40;99.90;;;;;;4918260;29;20020;-77
2023/05/06 01:49:16;;;;;;;5.18;3.30;;;15.40;99.90;;;;;;4916548;29;20029;-76
2023/05/06 01:51:47;;;;;;;7.10;3.33;;;15.30;99.90;;;;;;4917270;29;20070;-77
2023/05/06 01:54:13;;;;;;;6.57;3.17;;;15.30;99.90;;;;;;4917523;29;20442;-77
2023/05/06 01:56:39;;;;;;;4.00;2.80;;;15.30;99.90;;;;;;4917335;29;20036;-77
2023/05/06 01:59:04;;;;;;;6.80;2.92;;;15.20;99.90;;;;;;4916732;29;20031;-79
2023/05/06 02:01:30;;;;;;;4.50;3.22;;;15.10;99.90;;;;;;4918143;29;20035;-77
2023/05/06 02:03:56;;;;;;;5.97;3.35;;;15.10;99.90;;;;;;4918210;29;20499;-77
2023/05/06 02:06:21;;;;;;;4.32;3.38;;;15.10;99.90;;;;;;4917503;29;20028;-78
2023/05/06 02:08:48;;;;;;;3.50;2.67;;;15.00;99.90;;;;;;4917939;29;20111;-77
2023/05/06 02:11:13;;;;;;;7.25;3.30;;;15.00;99.90;;;;;;4916277;29;20028;-77
2023/05/06 02:13:39;;;;;;;6.82;3.05;;;15.00;99.90;;;;;;4916886;29;20035;-77
2023/05/06 02:16:05;;;;;;;6.10;3.28;;;15.00;99.90;;;;;;4916215;29;20604;-82
2023/05/06 02:18:30;;;;;;;6.03;3.45;;;15.00;99.90;;;;;;4916513;29;20024;-77
2023/05/06 02:20:56;;;;;;;8.63;3.72;;;15.00;99.90;;;;;;4916623;29;20079;-77
2023/05/06 02:23:22;;;;;;;6.38;3.45;;;15.00;99.90;;;;;;4917098;29;20046;-77
2023/05/06 02:25:47;;;;;;;5.18;3.20;;;15.00;99.90;;;;;;4916452;29;20028;-78
2023/05/06 02:28:13;;;;;;;5.68;3.85;;;15.00;99.90;;;;;;4917002;29;20154;-77
2023/05/06 02:30:38;;;;;;;4.75;3.25;;;15.00;99.90;;;;;;4916012;29;20465;-77
2023/05/06 02:33:04;;;;;;;7.68;4.07;;;14.90;99.90;;;;;;4915965;29;20039;-80
2023/05/06 02:35:29;;;;;;;6.32;3.85;;;14.90;99.90;;;;;;4916123;29;20076;-77
2023/05/06 02:37:55;;;;;;;8.70;4.15;;;14.80;99.90;;;;;;4915893;29;20048;-76
2023/05/06 02:40:21;;;;;;;8.77;4.72;;;14.80;99.90;;;;;;4916725;29;20037;-77
2023/05/06 02:42:46;;;;;;;7.47;3.83;;;14.80;99.90;;;;;;4916202;29;20056;-76
2023/05/06 02:45:12;;;;;;;7.13;3.90;;;14.80;99.90;;;;;;4915187;29;20150;-77
2023/05/06 02:47:37;;;;;;;6.55;3.67;;;14.80;99.90;;;;;;4915818;29;20028;-77
2023/05/06 02:50:03;;;;;;;8.73;3.90;;;14.80;99.90;;;;;;4915904;29;20123;-76
2023/05/06 02:52:29;;;;;;;8.30;4.10;;;14.80;99.90;;;;;;4915434;29;20104;-76
2023/05/06 02:54:54;;;;;;;6.32;4.30;;;14.80;99.90;;;;;;4915920;29;20417;-75
2023/05/06 02:57:20;;;;;;;8.23;3.88;;;14.80;99.90;;;;;;4915530;29;20036;-76
2023/05/06 02:59:45;;;;;;;6.13;4.07;;;14.80;99.90;;;;;;4915936;29;20067;-76
2023/05/06 03:02:11;;;;;;;7.35;3.92;;;14.70;99.90;;;;;;4915318;29;20086;-76
2023/05/06 03:04:36;;;;;;;7.10;3.90;;;14.80;99.90;;;;;;4917301;29;20067;-77
2023/05/06 03:07:02;;;;;;;7.93;3.83;;;14.80;99.90;;;;;;4916973;29;20378;-78
2023/05/06 03:09:28;;;;;;;6.13;3.92;;;14.80;99.90;;;;;;4915579;29;20028;-77
2023/05/06 03:11:54;;;;;;;6.78;4.18;;;14.80;99.90;;;;;;4917112;29;20470;-77
2023/05/06 03:14:20;;;;;;;8.57;4.00;;;14.80;99.90;;;;;;4930862;29;20040;-77
2023/05/06 03:16:45;;;;;;;6.47;3.63;;;14.70;99.90;;;;;;4917141;29;20028;-77
2023/05/06 03:19:11;;;;;;;6.07;3.58;;;14.70;99.90;;;;;;4915170;29;20024;-77
2023/05/06 03:21:37;;;;;;;7.85;4.40;;;14.70;99.90;;;;;;4915540;29;20410;-77
2023/05/06 03:24:02;;;;;;;5.90;4.20;;;14.70;99.90;;;;;;4915664;29;20039;-77
2023/05/06 03:26:28;;;;;;;6.20;3.78;;;14.60;99.90;;;;;;4915024;29;20095;-76
2023/05/06 03:28:54;;;;;;;6.88;3.88;;;14.60;99.90;;;;;;4915668;29;20028;-76
2023/05/06 03:31:19;;;;;;;7.30;4.53;;;14.60;99.90;;;;;;4916294;29;20028;-76
2023/05/06 03:33:45;;;;;;;8.80;4.32;;;14.60;99.90;;;;;;4916598;29;20035;-76
2023/05/06 03:36:12;;;;;;;5.95;4.07;;;14.60;99.90;;;;;;4914673;29;20514;-77
2023/05/06 03:38:39;;;;;;;6.65;4.20;;;14.60;99.90;;;;;;4914458;29;20420;-77
2023/05/06 03:41:04;;;;;;;6.60;3.75;;;14.60;99.90;;;;;;4915113;29;20043;-77
2023/05/06 03:43:30;;;;;;;10.02;4.53;;;14.50;99.90;;;;;;4914877;29;20028;-77
2023/05/06 03:45:56;;;;;;;10.23;4.45;;;14.50;99.90;;;;;;4915084;29;20499;-77
2023/05/06 03:48:22;;;;;;;5.93;3.85;;;14.40;99.90;;;;;;4930630;29;20071;-77
2023/05/06 03:50:48;;;;;;;8.90;4.25;;;14.40;99.90;;;;;;4916525;29;20101;-77
2023/05/06 03:53:14;;;;;;;9.90;4.38;;;14.40;99.90;;;;;;4915414;29;20137;-77
2023/05/06 03:55:39;;;;;;;7.95;4.78;;;14.40;99.90;;;;;;4915966;29;20466;-77
2023/05/06 03:58:06;;;;;;;8.10;4.60;;;14.30;99.90;;;;;;4918309;29;20027;-76
2023/05/06 04:00:31;;;;;;;7.22;4.28;;;14.30;99.90;;;;;;4920067;29;20024;-77
2023/05/06 04:02:57;;;;;;;7.13;4.38;;;14.30;99.90;;;;;;4934934;29;20032;-76
2023/05/06 04:05:22;;;;;;;8.48;4.75;;;14.20;99.90;;;;;;4919685;29;20466;-77
2023/05/06 04:07:48;;;;;;;6.35;3.72;;;14.30;99.90;;;;;;4920113;29;20156;-76
2023/05/06 04:10:14;;;;;;;9.77;4.40;;;14.20;99.90;;;;;;4919703;29;20412;-77
2023/05/06 04:12:39;;;;;;;6.55;4.28;;;14.30;99.90;;;;;;4934673;29;20032;-76
2023/05/06 04:15:06;;;;;;;8.25;4.63;;;14.20;99.90;;;;;;4919908;29;20457;-76
2023/05/06 04:17:31;;;;;;;7.97;4.47;;;14.20;99.90;;;;;;4918355;29;20573;-76
2023/05/06 04:19:57;;;;;;;5.90;4.38;;;14.30;99.90;;;;;;4934591;29;20028;-76
2023/05/06 04:22:23;;;;;;;5.95;4.22;;;14.20;99.90;;;;;;4919513;29;20404;-76
2023/05/06 04:24:49;;;;;;;8.98;4.70;;;14.30;99.90;;;;;;4919803;29;20032;-76
2023/05/06 04:27:14;;;;;;;7.25;4.18;;;14.30;99.90;;;;;;4917880;29;20038;-77
2023/05/06 04:29:40;;;;;;;8.15;4.20;;;14.30;99.90;;;;;;4918356;29;20024;-76
2023/05/06 04:32:06;;;;;;;9.10;3.97;;;14.20;99.90;;;;;;4934148;29;20028;-76
2023/05/06 04:34:32;;;;;;;6.70;4.32;;;14.20;99.90;;;;;;4917541;29;20151;-77
2023/05/06 04:36:57;;;;;;;7.28;4.40;;;14.30;99.90;;;;;;4920295;29;20435;-77
2023/05/06 04:39:26;;;;;;;8.23;4.65;;;14.30;99.90;;;;;;4920749;29;20027;-77
2023/05/06 04:41:51;;;;;;;6.57;4.53;;;14.40;99.90;;;;;;4938633;29;20135;-77
2023/05/06 04:44:18;;;;;;;8.15;4.45;;;14.30;99.90;;;;;;4937850;29;20500;-77
2023/05/06 04:46:44;;;;;;;8.63;4.40;;;14.30;99.90;;;;;;4938549;29;20119;-76
2023/05/06 04:49:10;;;;;;;6.57;4.40;;;14.30;99.90;;;;;;4921545;29;20115;-77
2023/05/06 04:51:35;;;;;;;5.95;4.18;;;14.40;99.90;;;;;;4938144;29;20020;-77
2023/05/06 04:54:01;;;;;;;8.80;5.03;;;14.30;99.90;;;;;;4938378;29;20084;-77
2023/05/06 04:56:26;;;;;;;8.85;4.68;;;14.30;99.90;;;;;;4920938;29;20024;-77
2023/05/06 04:58:52;;;;;;;8.10;4.40;;;14.20;99.90;;;;;;4921332;29;20365;-76
2023/05/06 05:01:18;;;;;;;9.40;4.55;;;14.30;99.90;;;;;;4920874;29;20030;-77
2023/05/06 05:03:44;;;;;;;7.18;4.47;;;14.30;99.90;;;;;;4938170;29;20428;-77
2023/05/06 05:06:12;;;;;;;6.13;3.95;;;14.20;99.90;;;;;;4938213;29;20028;-76
2023/05/06 05:08:37;;;;;;;6.97;4.43;;;14.30;99.90;;;;;;4919692;29;20036;-77
2023/05/06 05:11:05;;;;;;;7.40;4.38;;;14.30;99.90;;;;;;4921217;29;20036;-76
2023/05/06 05:13:30;;;;;;;9.07;3.90;;;14.30;99.90;;;;;;4920566;29;20028;-76
2023/05/06 05:15:56;;;;;;;8.02;3.90;;;14.30;99.90;;;;;;4937871;29;20062;-77
2023/05/06 05:18:22;;;;;;;5.80;4.22;;;14.40;99.90;;;;;;4920795;29;20028;-78
2023/05/06 05:20:47;;;;;;;10.32;4.50;;;14.50;99.90;;;;;;4920916;29;20028;-78
2023/05/06 05:23:13;;;;;;;5.43;4.20;;;14.50;99.90;;;;;;4938221;29;20031;-80
2023/05/06 05:25:39;;;;;;;6.43;4.15;;;14.60;99.90;;;;;;4937810;29;20039;-77
2023/05/06 05:28:05;;;;;;;8.27;4.45;;;14.60;99.90;;;;;;4938052;29;20102;-77
2023/05/06 05:30:30;;;;;;;7.93;4.35;;;14.60;99.90;;;;;;4920541;29;20114;-77
2023/05/06 05:32:56;;;;;;;11.65;4.88;;;14.60;99.90;;;;;;4920829;29;20031;-77
2023/05/06 05:35:21;;;;;;;12.35;5.93;;;14.60;99.90;;;;;;4920377;29;20036;-77
2023/05/06 05:37:48;;;;;;;7.95;5.03;;;14.60;99.90;;;;;;4920538;29;20051;-77
2023/05/06 05:40:13;;;;;;;7.57;4.80;;;14.70;99.90;;;;;;4920588;29;20152;-76
2023/05/06 05:42:39;;;;;;;7.78;5.05;;;14.70;99.90;;;;;;4920317;29;20123;-76
2023/05/06 05:45:05;;;;;;;10.20;5.13;;;14.80;99.90;;;;;;4920463;29;20027;-76
2023/05/06 05:47:31;;;;;;;9.82;5.38;;;14.90;99.90;;;;;;4937025;29;20028;-77
2023/05/06 05:49:56;;;;;;;10.68;6.00;;;14.90;99.90;;;;;;4937417;29;20385;-77
2023/05/06 05:52:22;;;;;;;10.50;5.93;;;14.90;99.90;;;;;;4919688;29;20036;-78
2023/05/06 05:54:48;;;;;;;7.85;5.55;;;14.90;99.90;;;;;;4920061;29;20042;-77
2023/05/06 05:57:14;;;;;;;11.13;5.60;;;14.90;99.90;;;;;;4937079;29;20055;-76
2023/05/06 05:59:40;;;;;;;11.30;5.72;;;15.00;99.90;;;;;;4936875;29;20028;-77
2023/05/06 06:02:05;;;;;;;10.30;5.15;;;15.00;99.90;;;;;;4920372;29;20071;-77
2023/05/06 06:04:31;;;;;;;8.60;5.30;;;15.00;99.90;;;;;;4919646;29;20035;-77
2023/05/06 06:06:57;;;;;;;10.60;5.93;;;15.10;99.90;;;;;;4920361;29;20050;-77
2023/05/06 06:09:23;;;;;;;10.60;6.35;;;15.10;99.90;;;;;;4919823;29;20042;-77
2023/05/06 06:11:48;;;;;;;9.30;5.63;;;15.10;99.90;;;;;;4920051;29;20027;-77
2023/05/06 06:14:14;;;;;;;8.38;5.75;;;15.10;99.90;;;;;;4920328;29;20039;-77
2023/05/06 06:16:40;;;;;;;10.63;5.32;;;15.10;99.90;;;;;;4919536;29;20381;-75
2023/05/06 06:19:05;;;;;;;11.13;6.65;;;15.20;99.90;;;;;;4936783;29;20039;-75
2023/05/06 06:21:31;;;;;;;7.60;5.20;;;15.20;99.90;;;;;;4918309;29;20035;-76
2023/05/06 06:23:56;;;;;;;9.57;5.80;;;15.20;99.90;;;;;;4915240;29;20807;-76
2023/05/06 06:26:22;;;;;;;8.10;5.35;;;15.20;99.90;;;;;;4918391;29;20067;-76
2023/05/06 06:28:48;;;;;;;9.73;5.47;;;15.30;99.90;;;;;;4918577;29;20030;-76
2023/05/06 06:31:13;;;;;;;8.48;5.18;;;15.30;99.90;;;;;;4935758;29;20058;-76
2023/05/06 06:33:39;;;;;;;13.15;5.38;;;15.30;99.90;;;;;;4935239;29;20507;-75
2023/05/06 06:36:05;;;;;;;12.68;5.63;;;15.30;99.90;;;;;;4918728;29;20063;-76
2023/05/06 06:38:31;;;;;;;11.93;5.78;;;15.40;99.90;;;;;;4935241;29;20475;-77
2023/05/06 06:40:56;;;;;;;8.77;5.43;;;15.40;99.90;;;;;;4918592;29;20023;-76
2023/05/06 06:43:23;;;;;;;11.60;5.47;;;15.40;99.90;;;;;;4935064;29;20028;-76
2023/05/06 06:45:49;;;;;;;10.15;6.00;;;15.50;99.90;;;;;;4918785;29;20039;-76
2023/05/06 06:48:15;;;;;;;8.98;5.78;;;15.60;99.90;;;;;;4918677;29;20027;-75
2023/05/06 06:50:41;;;;;;;9.35;5.53;;;15.60;99.90;;;;;;4936169;29;20075;-75
2023/05/06 06:53:06;;;;;;;11.32;5.18;;;15.70;99.90;;;;;;4936185;29;20032;-74
2023/05/06 06:55:32;;;;;;;10.13;5.70;;;15.70;99.90;;;;;;4918147;29;20040;-75
2023/05/06 06:57:57;;;;;;;8.70;5.15;;;15.70;99.90;;;;;;4918603;29;20444;-75
2023/05/06 07:00:23;;;;;;;10.95;5.55;;;15.80;99.90;;;;;;4918015;29;20067;-75
2023/05/06 07:02:49;;;;;;;12.48;5.35;;;15.90;99.90;;;;;;4934190;29;20431;-75
2023/05/06 07:05:14;;;;;;;8.23;5.38;;;15.90;99.90;;;;;;4935481;29;20034;-75
2023/05/06 07:07:40;;;;;;;10.13;5.53;;;15.90;99.90;;;;;;4934519;29;20083;-75
2023/05/06 07:10:06;;;;;;;14.18;5.07;;;16.00;99.90;;;;;;4918697;29;20581;-75
2023/05/06 07:12:32;;;;;;;10.65;5.05;;;15.90;99.90;;;;;;4917829;29;20027;-75
2023/05/06 07:14:57;;;;;;;8.40;4.28;;;15.90;99.90;;;;;;4918191;29;20039;-75
2023/05/06 07:17:23;;;;;;;11.73;5.00;;;15.90;99.90;;;;;;4917945;29;20038;-75
2023/05/06 07:19:49;;;;;;;7.85;4.28;;;15.90;99.90;;;;;;4918253;29;20023;-76
2023/05/06 07:22:14;;;;;;;8.40;4.22;;;16.00;99.90;;;;;;4917775;29;20031;-75
2023/05/06 07:24:40;;;;;;;6.93;4.00;;;16.00;99.90;;;;;;4933954;29;20032;-75
2023/05/06 07:27:05;;;;;;;7.22;4.50;;;16.10;99.90;;;;;;4917807;29;20024;-77
2023/05/06 07:29:31;;;;;;;7.47;4.38;;;16.10;99.90;;;;;;4934643;29;20035;-76
2023/05/06 07:31:57;;;;;;;5.40;3.65;;;16.20;99.90;;;;;;4934919;29;20031;-75
2023/05/06 07:34:22;;;;;;;9.13;4.60;;;16.20;99.90;;;;;;4916775;29;20183;-78
2023/05/06 07:36:49;;;;;;;6.22;3.50;;;16.30;99.90;;;;;;4917315;29;20036;-76
2023/05/06 07:39:15;;;;;;;6.88;3.50;;;16.30;99.90;;;;;;4917756;29;20058;-75
2023/05/06 07:41:40;;;;;;;5.22;3.25;;;16.30;99.90;;;;;;4917306;29;20024;-75
2023/05/06 07:44:06;;;;;;;6.85;3.83;;;16.30;99.90;;;;;;4917978;29;20465;-75
2023/05/06 07:46:32;;;;;;;4.50;3.22;;;16.40;99.90;;;;;;4934113;29;20060;-76
2023/05/06 07:48:57;;;;;;;7.68;3.58;;;16.50;99.90;;;;;;4917920;29;20063;-76
2023/05/06 07:51:23;;;;;;;5.68;3.35;;;16.50;99.90;;;;;;4917470;29;20043;-77
2023/05/06 07:53:48;;;;;;;6.45;2.95;;;16.60;99.90;;;;;;4934604;29;20111;-76
2023/05/06 07:56:14;;;;;;;4.93;3.20;;;16.70;99.90;;;;;;4917875;29;20110;-75
2023/05/06 07:58:40;;;;;;;5.13;3.08;;;16.80;99.90;;;;;;4934333;29;20036;-76
2023/05/06 08:01:05;;;;;;;5.25;2.80;;;16.80;99.90;;;;;;4934641;29;20363;-75
2023/05/06 08:03:31;;;;;;;4.32;2.85;;;16.80;99.90;;;;;;4916916;29;20066;-75
2023/05/06 08:05:57;;;;;;;4.20;2.70;;;16.90;99.90;;;;;;4934436;29;20088;-75
2023/05/06 08:08:26;;;;;;;6.00;2.90;;;17.00;99.90;;;;;;4933834;29;20212;-78
2023/05/06 08:10:56;;;;;;;7.93;2.95;;;17.10;99.90;;;;;;4917650;29;20032;-74
2023/05/06 08:13:22;;;;;;;5.30;2.47;;;17.10;99.90;;;;;;4933232;29;20027;-78
2023/05/06 08:15:48;;;;;;;5.05;2.65;;;17.10;99.90;;;;;;4934247;29;20370;-74
2023/05/06 08:18:13;;;;;;;3.35;2.20;;;17.20;99.90;;;;;;4918916;29;20465;-75
2023/05/06 08:20:39;;;;;;;3.92;1.88;;;17.30;99.90;;;;;;4933916;28;20611;-74
2023/05/06 08:23:05;;;;;;;4.22;1.63;;;17.30;99.90;;;;;;4934159;29;20028;-75
2023/05/06 08:25:30;;;;;;;3.85;1.92;;;17.30;99.90;;;;;;4933283;29;20031;-75
2023/05/06 08:27:56;;;;;;;5.03;2.35;;;17.50;99.90;;;;;;4933010;29;20035;-76
2023/05/06 08:30:21;;;;;;;3.25;1.92;;;17.60;99.90;;;;;;4916936;29;20483;-76
2023/05/06 08:32:47;;;;;;;3.55;2.03;;;17.80;99.90;;;;;;4933629;29;20027;-76
2023/05/06 08:35:13;;;;;;;2.45;1.88;;;17.90;99.90;;;;;;4932739;29;20036;-76
2023/05/06 08:37:40;;;;;;;2.95;2.08;;;18.00;99.90;;;;;;4933234;29;20135;-76
2023/05/06 08:40:22;;;;;;;3.40;1.85;;;18.10;99.90;;;;;;4934180;29;20043;-76
2023/05/06 08:42:49;;;;;;;1.55;1.45;;;18.20;99.90;;;;;;4934245;29;20032;-76
2023/05/06 08:45:18;;;;;;;4.25;1.85;;;18.20;99.90;;;;;;4935836;29;20432;-76
2023/05/06 08:47:45;;;;;;;4.13;2.00;;;18.30;99.90;;;;;;4937475;29;20024;-74
2023/05/06 08:50:11;;;;;;;2.92;1.80;;;18.30;99.90;;;;;;4937737;29;20387;-76
2023/05/06 08:52:38;;;;;;;3.70;1.67;;;18.30;99.90;;;;;;4937280;29;20476;-77
2023/05/06 08:55:04;;;;;;;1.75;1.38;;;18.40;99.90;;;;;;4920543;29;20044;-76
2023/05/06 08:57:31;;;;;;;2.38;1.48;;;18.50;99.90;;;;;;4919895;29;20031;-76
2023/05/06 08:59:57;;;;;;;1.40;1.30;;;18.50;99.90;;;;;;4937750;29;20099;-76
2023/05/06 09:02:24;;;;;;;2.25;1.25;;;18.60;99.90;;;;;;4937587;29;20094;-79
2023/05/06 09:04:52;;;;;;;2.20;1.10;;;18.60;99.90;;;;;;4920423;29;20074;-77
2023/05/06 09:07:20;;;;;;;1.75;1.00;;;18.60;99.90;;;;;;4937858;29;20043;-76
2023/05/06 09:09:46;;;;;;;2.45;1.20;;;18.70;99.90;;;;;;4937630;29;20036;-76
2023/05/06 09:12:13;;;;;;;2.83;1.35;;;18.70;99.90;;;;;;4920761;29;20123;-75
2023/05/06 09:14:39;;;;;;;3.78;1.30;;;18.70;99.90;;;;;;4919639;29;20035;-75
2023/05/06 09:17:15;;;;;;;3.67;1.48;;;18.80;99.90;;;;;;4920324;29;20038;-76
2023/05/06 09:19:41;;;;;;;3.97;1.55;;;18.80;99.90;;;;;;4919986;29;20059;-75
2023/05/06 09:22:07;;;;;;;2.20;1.40;;;18.80;99.90;;;;;;4917395;29;20028;-76
2023/05/06 09:24:33;;;;;;;1.98;1.52;;;18.90;99.90;;;;;;4919494;29;20076;-76
2023/05/06 09:27:00;;;;;;;3.05;1.77;;;18.90;99.90;;;;;;4920278;29;20057;-76
2023/05/06 09:29:26;;;;;;;2.47;1.30;;;18.90;99.90;;;;;;4935549;29;20038;-78
2023/05/06 09:31:52;;;;;;;2.38;1.65;;;18.90;99.90;;;;;;4937021;29;20023;-76
2023/05/06 09:34:19;;;;;;;1.73;1.48;;;18.90;99.90;;;;;;4919160;29;20043;-75
2023/05/06 09:36:45;;;;;;;1.48;1.13;;;19.00;99.90;;;;;;4919099;29;20144;-76
2023/05/06 09:39:11;;;;;;;3.42;1.77;;;19.00;99.90;;;;;;4936994;29;20446;-76
2023/05/06 09:41:36;;;;;;;1.95;1.60;;;19.10;99.90;;;;;;4919286;29;20028;-76
2023/05/06 09:44:03;;;;;;;3.40;1.52;;;19.10;99.90;;;;;;4919071;29;20056;-76
2023/05/06 09:46:29;;;;;;;2.40;1.70;;;19.20;99.90;;;;;;4935958;29;20093;-76
2023/05/06 09:48:56;;;;;;;3.08;1.70;;;19.20;99.90;;;;;;4919724;29;20106;-76
2023/05/06 09:51:21;;;;;;;2.10;1.58;;;19.20;99.90;;;;;;4919866;29;20477;-75
2023/05/06 09:53:47;;;;;;;2.33;1.48;;;19.30;99.90;;;;;;4918571;29;20055;-76
2023/05/06 09:56:14;;;;;;;2.95;1.77;;;19.30;99.90;;;;;;4919321;29;20500;-76
2023/05/06 09:58:41;;;;;;;2.00;1.80;;;19.30;99.90;;;;;;4936226;29;20032;-76
2023/05/06 10:01:08;;;;;;;1.60;1.50;;;19.30;99.90;;;;;;4936836;29;20027;-76
2023/05/06 10:03:34;;;;;;;2.22;1.50;;;19.40;99.90;;;;;;4918746;29;20131;-76
2023/05/06 10:06:01;;;;;;;2.08;1.58;;;19.60;99.90;;;;;;4918936;29;20046;-76
2023/05/06 10:08:28;;;;;;;2.05;1.80;;;19.60;99.90;;;;;;4932706;29;20035;-78
2023/05/06 10:10:54;;;;;;;3.08;1.20;;;19.60;99.90;;;;;;4936504;29;20075;-82
2023/05/06 10:13:21;;;;;;;5.03;1.65;;;19.60;99.90;;;;;;4937181;29;20079;-80
2023/05/06 10:15:48;;;;;;;1.65;1.27;;;19.70;99.90;;;;;;4934398;29;20038;-77
2023/05/06 10:18:16;;;;;;;2.00;1.20;;;19.60;99.90;;;;;;4928037;29;20114;-79
2023/05/06 10:20:43;;;;;;;1.70;1.17;;;19.70;99.90;;;;;;4935749;29;20039;-78
2023/05/06 10:23:14;;;;;;;1.33;1.05;;;19.60;99.90;;;;;;4917609;29;20037;-76
2023/05/06 10:25:42;;;;;;;1.67;0.90;;;19.70;99.90;;;;;;4918119;29;20487;-79
2023/05/06 10:28:09;;;;;;;4.80;1.17;;;19.70;99.90;;;;;;4935580;29;20463;-79
2023/05/06 10:30:37;;;;;;;2.50;0.88;;;19.80;99.90;;;;;;4918694;29;20027;-79
2023/05/06 10:33:04;;;;;;;2.53;0.90;;;19.80;99.90;;;;;;4919217;29;20028;-83
2023/05/06 10:35:40;;;;;;;7.97;1.65;;;19.90;99.90;;;;;;4938286;29;20067;-81
2023/05/06 10:38:31;;;;;;;3.42;1.50;;;19.80;99.90;;;;;;4937815;29;20055;-78
2023/05/06 10:40:58;;;;;;;4.28;1.80;;;19.80;99.90;;;;;;4936340;29;20136;-81
2023/05/06 10:43:34;;;;;;;2.33;1.60;;;20.00;99.90;;;;;;4919190;29;20059;-81
2023/05/06 10:46:16;;;;;;;2.15;1.42;;;20.00;99.90;;;;;;4917368;29;20039;-83
2023/05/06 10:49:10;;;;;;;4.55;1.70;;;20.00;99.90;;;;;;4919012;29;20445;-82
2023/05/06 10:51:36;;;;;;;4.43;1.40;;;20.10;99.90;;;;;;4919903;29;20110;-80
2023/05/06 10:54:09;;;;;;;3.67;1.30;;;20.20;99.90;;;;;;4918378;29;20028;-80
2023/05/06 10:56:47;;;;;;;3.20;1.02;;;20.20;99.90;;;;;;4918495;29;20385;-80
2023/05/06 10:59:13;;;;;;;4.97;1.45;;;20.30;99.90;;;;;;4934904;29;20036;-79
2023/05/06 11:01:40;;;;;;;2.83;1.45;;;20.20;99.90;;;;;;4930810;29;20129;-80
2023/05/06 11:04:14;;;;;;;3.63;1.85;;;20.30;99.90;;;;;;4918578;29;20528;-82
2023/05/06 11:06:45;;;;;;;3.20;1.38;;;20.30;99.90;;;;;;4929393;29;20051;-82
2023/05/06 11:09:22;;;;;;;1.53;1.20;;;20.20;99.90;;;;;;4918750;29;20114;-79
2023/05/06 11:12:00;;;;;;;2.78;1.17;;;20.20;99.90;;;;;;4935375;29;20269;-79
2023/05/06 11:14:26;;;;;;;2.15;1.30;;;20.20;99.90;;;;;;4907447;29;20040;-83
2023/05/06 11:16:52;;;;;;;7.78;1.40;;;20.30;99.90;;;;;;4935596;29;20034;-86
2023/05/06 11:19:21;;;;;;;3.20;1.40;;;20.40;99.90;;;;;;4920974;29;20047;-80
2023/05/06 11:21:46;;;;;;;3.17;1.05;;;20.50;99.90;;;;;;4924768;29;20027;-87
2023/05/06 11:24:12;;;;;;;3.15;1.27;;;20.60;99.90;;;;;;4923925;29;20038;-86
2023/05/06 11:26:40;;;;;;;3.45;1.05;;;20.70;99.90;;;;;;4918702;29;20031;-83
2023/05/06 11:29:07;;;;;;;1.65;1.08;;;20.80;99.90;;;;;;4919829;29;20023;-81
2023/05/06 11:31:41;;;;;;;4.78;1.20;;;20.90;99.90;;;;;;4918875;29;20027;-84
2023/05/06 11:34:08;;;;;;;1.95;0.80;;;20.90;99.90;;;;;;4918709;29;20031;-77
2023/05/06 11:36:36;;;;;;;4.43;1.17;;;20.90;99.90;;;;;;4917801;29;20023;-79
2023/05/06 11:39:07;;;;;;;1.63;1.10;;;21.00;99.90;;;;;;4918129;29;20401;-78
2023/05/06 11:41:33;;;;;;;1.33;1.08;;;21.10;99.90;;;;;;4917250;29;20115;-77
2023/05/06 11:43:58;;;;;;;1.20;1.10;;;21.30;99.90;;;;;;4917927;29;20024;-78
2023/05/06 11:46:30;;;;;;;4.00;1.00;;;21.20;99.90;;;;;;4934900;29;20111;-78
2023/05/06 11:48:56;;;;;;;2.33;1.00;;;21.30;99.90;;;;;;4934822;29;20067;-79
2023/05/06 11:51:22;;;;;;;2.92;0.95;;;21.40;99.90;;;;;;4918267;29;20120;-77
2023/05/06 11:53:48;;;;;;;2.80;1.50;;;21.40;99.90;;;;;;4935525;29;20051;-80
2023/05/06 11:56:13;;;;;;;2.60;1.05;;;21.50;99.90;;;;;;4915208;29;20481;-80
2023/05/06 11:58:39;;;;;;;1.63;1.00;;;21.60;99.90;;;;;;4914896;29;20032;-80
2023/05/06 12:01:05;;;;;;;2.22;1.10;;;21.50;99.50;;;;;;4931778;29;20031;-78
2023/05/06 12:03:31;;;;;;;1.08;0.80;;;21.60;99.90;;;;;;4913171;29;20032;-81
2023/05/06 12:05:58;;;;;;;2.05;1.02;;;21.60;99.90;;;;;;4927471;29;20059;-79
2023/05/06 12:08:32;;;;;;;1.33;1.00;;;21.70;99.90;;;;;;4917979;29;20544;-78
2023/05/06 12:11:05;;;;;;;1.17;0.90;;;21.80;99.90;;;;;;4917849;29;20042;-81
2023/05/06 12:13:33;;;;;;;3.08;1.00;;;21.90;99.90;;;;;;4935014;29;20551;-79
2023/05/06 12:16:00;;;;;;;1.48;0.75;;;21.90;99.90;;;;;;4934046;29;20032;-77
2023/05/06 12:18:26;;;;;;;3.00;1.60;;;21.90;99.20;;;;;;4935532;29;20477;-83
2023/05/06 12:21:01;;;;;;;2.17;1.27;;;21.90;99.90;;;;;;4938921;29;20038;-82
2023/05/06 12:23:27;;;;;;;2.33;1.10;;;22.00;99.90;;;;;;4921984;29;20024;-82
2023/05/06 12:26:04;;;;;;;1.50;0.88;;;22.10;99.90;;;;;;4938622;29;20043;-80
2023/05/06 12:28:31;;;;;;;2.33;0.90;;;22.20;99.90;;;;;;4937393;29;20059;-80
2023/05/06 12:30:57;;;;;;;2.80;1.10;;;22.20;99.90;;;;;;4938916;29;20035;-83
2023/05/06 12:33:22;;;;;;;3.47;0.82;;;22.30;99.90;;;;;;4922517;29;20059;-82
2023/05/06 12:35:50;;;;;;;2.40;1.08;;;22.20;99.90;;;;;;4938255;29;20039;-81
2023/05/06 12:38:17;;;;;;;259.35;25.58;;;22.30;99.90;;;;;;4921749;29;20094;-84
2023/05/06 12:40:44;;;;;;;5.75;2.20;;;22.40;99.90;;;;;;4921281;29;20035;-85
2023/05/06 12:43:10;;;;;;;17.38;2.65;;;22.50;99.90;;;;;;4921635;29;20376;-84
2023/05/06 12:45:40;;;;;;;14.75;2.67;;;22.60;99.90;;;;;;4937850;29;20122;-84